Nova Granada, Brazil
Current Conditions -  °F | °C
As of 1:00 AM on Sunday 25 Jan 2015 (Local Time) from SBUR Reporting Station
Clear Clear  
Wind Chill: 75°   Ceiling: Unl
Heat Index: 75°   Visibility: 6mi
Dew Point: 63°   Wind: 9mph
Humidity: 65%   Direction: 20°NNE
Pressure: 30.03"   Gusts: NA
Location:  20.53°S, 49.31°W
Report Text: SBUR 250300Z 02008KT CAVOK 24/17 Q1017
Loading
Personal Weather Stations






























Interactive Weather Map New forecast layout! Learn more

10-Day Weather Forecast

Advertisements
Track Severe Weather on mobile